Time;durP1;ratioP1;P1;durP2;ratioP2;P2;SDS_P1;SDS_P2;PMS_P1;PMS_P2;Temp;Humidity;BMP_temperature;BMP_pressure;BME280_temperature;BME280_humidity;BME280_pressure;Samples;Min_cycle;Max_cycle;Signal;HPM_P1;HPM_P2
2022/10/17 00:00:43;;;;;;;2.75;1.65;;;;;;;17.26;77.49;101643.94;6351277;22;20007;-84
2022/10/17 00:03:09;;;;;;;3.33;1.63;;;;;;;17.26;76.91;101638.72;6354932;22;20002;-85
2022/10/17 00:05:40;;;;;;;3.85;1.75;;;;;;;17.26;76.56;101633.53;6300889;22;20007;-83
2022/10/17 00:08:13;;;;;;;4.18;1.90;;;;;;;17.27;76.96;101640.50;6326575;22;20065;-84
2022/10/17 00:10:39;;;;;;;;;;;;;;;17.27;77.07;101632.69;6328088;22;20013;-84
2022/10/17 00:13:06;;;;;;;4.10;1.63;;;;;;;17.27;76.75;101630.09;6321928;22;20307;-84
2022/10/17 00:15:32;;;;;;;3.83;1.70;;;;;;;17.27;77.22;101624.88;6325463;22;20003;-83
2022/10/17 00:18:19;;;;;;;3.63;1.60;;;;;;;17.26;77.25;101628.31;6302483;22;20075;-84
2022/10/17 00:21:09;;;;;;;2.72;1.42;;;;;;;17.26;76.92;101629.19;6262728;22;20029;-83
2022/10/17 00:23:35;;;;;;;2.58;1.65;;;;;;;17.25;76.70;101621.41;6268172;22;20027;-82
2022/10/17 00:26:02;;;;;;;4.10;1.67;;;;;;;17.28;77.03;101616.19;6287816;22;20011;-86
2022/10/17 00:28:28;;;;;;;3.60;1.50;;;;;;;17.26;77.04;101616.19;6262659;22;20007;-83
2022/10/17 00:31:11;;;;;;;2.67;1.52;;;;;;;17.25;76.87;101619.66;6261175;22;20024;-83
2022/10/17 00:33:37;;;;;;;2.85;1.40;;;;;;;17.26;76.99;101610.97;6263671;22;20027;-83
2022/10/17 00:36:23;;;;;;;2.92;1.30;;;;;;;17.24;76.45;101611.84;6263674;22;20099;-84
2022/10/17 00:38:52;;;;;;;2.22;1.40;;;;;;;17.26;76.78;101610.97;6268938;22;20090;-83
2022/10/17 00:41:20;;;;;;;2.95;1.40;;;;;;;17.27;76.81;101604.06;6259266;22;20018;-83
2022/10/17 00:51:02;;;;;;;2.65;1.15;;;;;;;17.27;76.10;101593.66;6298771;22;20068;-83
2022/10/17 00:53:28;;;;;;;2.20;1.30;;;;;;;17.28;76.47;101591.03;6265472;22;20094;-84
2022/10/17 00:55:53;;;;;;;2.15;1.20;;;;;;;17.26;76.07;101594.50;6264200;22;20011;-85
2022/10/17 00:58:19;;;;;;;3.75;1.90;;;;;;;17.26;76.47;101589.31;6262361;22;20344;-84
2022/10/17 01:00:46;;;;;;;2.33;1.33;;;;;;;17.24;76.60;101586.69;6264096;22;20034;-82
2022/10/17 01:03:13;;;;;;;2.60;1.50;;;;;;;17.27;76.91;101589.31;6236684;22;20049;-83
2022/10/17 01:05:40;;;;;;;2.70;1.50;;;;;;;17.25;76.41;101585.00;6327482;22;20010;-85
2022/10/17 01:08:06;;;;;;;2.28;1.52;;;;;;;17.27;76.03;101596.25;6331801;22;20003;-84
2022/10/17 01:10:49;;;;;;;2.80;1.50;;;;;;;17.27;76.35;101593.66;6304870;22;20028;-86
2022/10/17 01:14:09;;;;;;;3.13;1.40;;;;;;;17.29;76.61;101586.75;6329698;22;20089;-84
2022/10/17 01:23:40;;;;;;;1.85;1.20;;;;;;;17.28;76.65;101565.03;6362097;22;20030;-84
2022/10/17 01:39:51;;;;;;;2.60;1.40;;;;;;;17.29;76.30;101537.31;6342765;22;20346;-85
2022/10/17 01:42:29;;;;;;;2.05;1.42;;;;;;;17.28;76.45;101540.75;6361362;22;20006;-86
2022/10/17 01:45:02;;;;;;;2.33;1.10;;;;;;;17.27;76.36;101537.28;6387226;22;19998;-85
2022/10/17 01:47:54;;;;;;;1.90;1.30;;;;;;;17.30;76.13;101535.56;6331551;22;20074;-85
2022/10/17 01:53:36;;;;;;;1.95;1.20;;;;;;;17.28;75.83;101519.94;6389811;22;20037;-87
2022/10/17 01:56:29;;;;;;;2.92;1.40;;;;;;;17.28;76.78;101520.81;6363339;22;20006;-86
2022/10/17 01:59:11;;;;;;;3.55;1.00;;;;;;;17.28;75.73;101515.59;6324834;22;20019;-85
2022/10/17 02:01:58;;;;;;;2.88;1.13;;;;;;;17.29;75.86;101503.50;6322658;22;20007;-87
2022/10/17 02:04:29;;;;;;;2.67;1.17;;;;;;;17.29;75.77;101506.09;6297145;22;20043;-82
2022/10/17 02:20:44;;;;;;;1.77;1.10;;;;;;;17.31;75.27;101503.47;6295246;22;20026;-84
2022/10/17 02:30:01;;;;;;;2.35;1.20;;;;;;;17.30;75.86;101501.75;6321148;22;20068;-85
2022/10/17 02:32:37;;;;;;;2.13;1.00;;;;;;;17.29;75.55;101495.69;6320504;22;20003;-85
2022/10/17 02:35:07;;;;;;;2.92;1.30;;;;;;;17.30;76.26;101487.00;6294391;22;20148;-86
2022/10/17 02:37:34;;;;;;;2.58;1.20;;;;;;;17.29;75.87;101474.88;6318438;22;20089;-85
2022/10/17 02:40:02;;;;;;;2.95;1.20;;;;;;;17.31;75.19;101483.56;6288956;22;20029;-85
2022/10/17 02:42:28;;;;;;;2.00;1.30;;;;;;;17.31;75.53;101474.88;6346529;22;20091;-85
2022/10/17 02:44:59;;;;;;;2.40;1.13;;;;;;;17.31;75.78;101478.34;6344477;22;20010;-85
2022/10/17 02:48:01;;;;;;;2.78;1.10;;;;;;;17.30;75.71;101471.41;6295777;22;20049;-82
2022/10/17 02:50:39;;;;;;;1.42;1.10;;;;;;;17.31;75.45;101473.16;6285439;22;20015;-85
2022/10/17 02:53:11;;;;;;;1.80;1.20;;;;;;;17.31;75.48;101475.75;6317172;22;20007;-85
2022/10/17 02:55:44;;;;;;;2.35;1.30;;;;;;;17.30;75.13;101475.75;6338974;22;20140;-85
2022/10/17 02:58:24;;;;;;;1.48;1.00;;;;;;;17.31;74.97;101474.88;6343514;22;20430;-85
2022/10/17 03:01:11;;;;;;;2.80;1.13;;;;;;;17.30;75.67;101487.00;6344563;22;20007;-85
2022/10/17 03:03:37;;;;;;;1.83;1.00;;;;;;;17.31;74.99;101491.38;6338881;22;20031;-84
2022/10/17 03:06:02;;;;;;;2.85;1.20;;;;;;;17.30;75.74;101502.63;6341161;22;20331;-85
2022/10/17 03:08:28;;;;;;;2.85;1.00;;;;;;;17.31;75.32;101500.88;6313793;22;20006;-84
2022/10/17 03:10:53;;;;;;;2.13;1.02;;;;;;;17.33;74.92;101512.16;6338950;22;20342;-84
2022/10/17 03:13:19;;;;;;;1.90;1.10;;;;;;;17.32;75.60;101513.91;6339904;22;20007;-84
2022/10/17 03:15:45;;;;;;;1.67;1.10;;;;;;;17.32;75.13;101518.25;6340986;22;20007;-85
2022/10/17 03:18:10;;;;;;;1.70;1.05;;;;;;;17.33;74.86;101518.22;6338816;22;20006;-84
2022/10/17 03:20:35;;;;;;;1.60;1.00;;;;;;;17.33;74.49;101513.00;6338156;22;20022;-84
2022/10/17 03:23:01;;;;;;;6.20;1.40;;;;;;;17.32;74.91;101508.69;6339149;22;20006;-85
2022/10/17 03:25:26;;;;;;;2.13;1.20;;;;;;;17.33;74.73;101515.63;6313979;22;20324;-85
2022/10/17 03:27:52;;;;;;;2.28;1.05;;;;;;;17.32;74.54;101508.69;6314984;22;20094;-84
2022/10/17 03:30:18;;;;;;;2.03;1.20;;;;;;;17.32;74.92;101508.69;6346493;22;20009;-82
2022/10/17 03:32:44;;;;;;;2.42;1.10;;;;;;;17.34;75.20;101511.31;6341740;22;20060;-86
2022/10/17 03:35:09;;;;;;;1.83;1.23;;;;;;;17.35;74.84;101502.63;6315878;22;20439;-84
2022/10/17 03:37:35;;;;;;;1.83;1.27;;;;;;;17.35;74.80;101505.22;6341720;22;20013;-84
2022/10/17 03:40:00;;;;;;;1.50;1.00;;;;;;;17.34;74.74;101512.16;6341292;22;20044;-85
2022/10/17 03:42:25;;;;;;;3.15;1.05;;;;;;;17.34;74.90;101517.38;6367496;22;20081;-85
2022/10/17 03:44:51;;;;;;;2.15;1.20;;;;;;;17.32;74.56;101511.28;6315140;22;20007;-85
2022/10/17 03:47:16;;;;;;;1.65;1.08;;;;;;;17.35;74.70;101510.44;6341021;22;20338;-85
2022/10/17 03:49:41;;;;;;;2.13;1.00;;;;;;;17.34;74.81;101499.16;6290191;22;20079;-84
2022/10/17 03:52:12;;;;;;;2.05;1.10;;;;;;;17.35;74.41;101489.63;6290272;22;20010;-85
2022/10/17 03:54:37;;;;;;;1.20;0.90;;;;;;;17.35;74.36;101482.66;6343068;22;20007;-84
2022/10/17 03:57:03;;;;;;;1.83;1.10;;;;;;;17.35;74.49;101494.81;6315533;22;20072;-84
2022/10/17 03:59:28;;;;;;;1.48;1.10;;;;;;;17.37;74.08;101485.28;6342217;22;20041;-84
2022/10/17 04:01:53;;;;;;;2.33;1.00;;;;;;;17.37;74.39;101498.28;6342085;22;20014;-84
2022/10/17 04:04:19;;;;;;;1.60;1.00;;;;;;;17.36;74.00;101506.97;6315587;22;20494;-85
2022/10/17 04:06:44;;;;;;;1.50;1.20;;;;;;;17.36;74.40;101488.75;6315005;22;20010;-85
2022/10/17 04:09:10;;;;;;;1.30;1.00;;;;;;;17.37;74.33;101498.28;6314956;22;20427;-85
2022/10/17 04:11:35;;;;;;;2.00;1.10;;;;;;;17.37;74.21;101512.16;6346525;22;20026;-84
2022/10/17 04:14:00;;;;;;;1.70;1.00;;;;;;;17.37;74.42;101516.50;6316284;22;20007;-85
2022/10/17 04:16:26;;;;;;;2.35;1.10;;;;;;;17.36;74.10;101513.03;6341497;22;20025;-85
2022/10/17 04:18:54;;;;;;;2.70;1.20;;;;;;;17.37;74.42;101519.97;6342617;22;20338;-85
2022/10/17 04:21:19;;;;;;;1.10;0.90;;;;;;;17.38;73.51;101524.31;6343270;22;20075;-85
2022/10/17 04:23:45;;;;;;;1.48;1.13;;;;;;;17.38;73.54;101520.84;6342708;22;20038;-85
2022/10/17 04:26:10;;;;;;;1.77;1.00;;;;;;;17.39;73.92;101518.25;6315821;22;20014;-85
2022/10/17 04:28:35;;;;;;;2.70;1.30;;;;;;;17.38;74.33;101515.66;6316292;22;20006;-85
2022/10/17 04:31:04;;;;;;;1.98;0.90;;;;;;;17.38;74.57;101519.13;6342129;22;20093;-85
2022/10/17 04:33:31;;;;;;;1.50;1.10;;;;;;;17.39;73.45;101525.19;6340787;22;20066;-84
2022/10/17 04:36:18;;;;;;;2.85;1.15;;;;;;;17.40;74.26;101519.13;6367439;22;20037;-85
2022/10/17 04:38:43;;;;;;;2.58;1.20;;;;;;;17.39;73.93;101525.19;6342557;22;20003;-85
2022/10/17 04:41:12;;;;;;;1.60;1.20;;;;;;;17.39;73.41;101531.25;6317258;22;20030;-85
2022/10/17 04:43:38;;;;;;;3.50;1.17;;;;;;;17.40;73.08;101525.19;6343497;22;20087;-85
2022/10/17 04:46:11;;;;;;;1.65;1.13;;;;;;;17.41;73.71;101537.31;6343297;22;20434;-84
2022/10/17 04:48:37;;;;;;;1.30;0.93;;;;;;;17.39;73.58;101539.06;6343731;22;20050;-85
2022/10/17 04:51:10;;;;;;;1.35;0.90;;;;;;;17.42;73.24;101539.06;6367783;22;20011;-86
2022/10/17 04:53:37;;;;;;;1.70;1.20;;;;;;;17.42;73.58;101546.00;6341385;22;20003;-86
2022/10/17 04:56:16;;;;;;;1.85;1.00;;;;;;;17.41;73.64;101531.25;6348147;22;20109;-85
2022/10/17 04:58:43;;;;;;;1.55;1.10;;;;;;;17.43;73.28;101535.59;6342479;22;20022;-85
2022/10/17 05:01:19;;;;;;;1.73;1.10;;;;;;;17.43;72.96;101535.59;6314195;22;20077;-84
2022/10/17 05:03:45;;;;;;;1.33;1.10;;;;;;;17.43;73.13;101535.59;6344545;22;20023;-82
2022/10/17 05:06:13;;;;;;;2.63;1.20;;;;;;;17.46;73.13;101534.72;6340509;22;20006;-83
2022/10/17 05:08:39;;;;;;;1.65;1.00;;;;;;;17.45;73.21;101533.88;6338520;22;20006;-82
2022/10/17 05:11:05;;;;;;;2.67;0.90;;;;;;;17.46;72.72;101538.22;6338485;22;20002;-83
2022/10/17 05:13:32;;;;;;;1.83;0.77;;;;;;;17.52;72.60;101544.28;6340288;22;20304;-82
2022/10/17 05:15:59;;;;;;;1.52;0.98;;;;;;;17.59;72.21;101538.22;6338565;22;20010;-82
2022/10/17 05:18:25;;;;;;;1.38;0.95;;;;;;;17.65;71.88;101539.09;6340021;22;20330;-82
2022/10/17 05:20:50;;;;;;;1.17;1.00;;;;;;;17.70;71.69;101533.91;6338376;22;20015;-83
2022/10/17 05:23:15;;;;;;;1.88;1.10;;;;;;;17.76;71.29;101533.91;6340206;22;20081;-83
2022/10/17 05:25:41;;;;;;;1.92;1.10;;;;;;;17.80;71.13;101542.59;6338601;22;20002;-83
2022/10/17 05:28:07;;;;;;;1.55;0.95;;;;;;;17.82;71.27;101552.19;6312286;22;20446;-82
2022/10/17 05:30:34;;;;;;;1.40;1.05;;;;;;;17.86;71.10;101569.53;6338479;22;20381;-79
2022/10/17 05:32:59;;;;;;;1.45;0.80;;;;;;;17.83;71.47;101560.84;6339858;22;20014;-79
2022/10/17 05:35:24;;;;;;;1.25;0.90;;;;;;;17.80;71.42;101561.69;6338798;22;20038;-81
2022/10/17 05:37:50;;;;;;;1.30;1.00;;;;;;;17.78;71.48;101568.63;6312873;22;20422;-80
2022/10/17 05:40:15;;;;;;;2.00;1.40;;;;;;;17.76;71.69;101565.16;6339856;22;20018;-80
2022/10/17 05:42:46;;;;;;;3.05;1.00;;;;;;;17.72;71.87;101560.78;6339369;22;20014;-81
2022/10/17 05:45:12;;;;;;;2.05;0.85;;;;;;;17.72;71.96;101573.81;6344816;22;20423;-82
2022/10/17 05:47:37;;;;;;;19.17;5.90;;;;;;;17.72;72.65;101573.81;6350064;22;19998;-86
2022/10/17 05:50:02;;;;;;;42.28;12.95;;;;;;;17.72;72.36;101566.00;6299043;22;20330;-85
2022/10/17 05:52:28;;;;;;;38.90;9.55;;;;;;;17.72;72.40;101553.00;6345729;22;20055;-84
2022/10/17 05:54:53;;;;;;;35.65;9.38;;;;;;;17.76;73.24;101556.47;6319069;22;20014;-84
2022/10/17 05:57:19;;;;;;;26.92;7.75;;;;;;;17.73;72.76;101564.28;6318199;22;20011;-82
2022/10/17 05:59:44;;;;;;;24.08;6.93;;;;;;;17.71;72.77;101564.28;6339810;22;20006;-81
2022/10/17 06:02:12;;;;;;;21.83;6.38;;;;;;;17.68;72.47;101565.16;6313109;22;20007;-78
2022/10/17 06:04:37;;;;;;;16.80;5.70;;;;;;;17.67;72.52;101567.75;6340259;22;20057;-79
2022/10/17 06:07:03;;;;;;;16.05;5.20;;;;;;;17.65;72.41;101564.28;6340671;22;20423;-81
2022/10/17 06:09:29;;;;;;;14.02;4.95;;;;;;;17.64;72.61;101555.59;6312855;22;20055;-81
2022/10/17 06:11:54;;;;;;;16.38;4.38;;;;;;;17.62;72.95;101554.72;6339034;22;20382;-83
2022/10/17 06:14:20;;;;;;;12.18;4.30;;;;;;;17.62;72.98;101561.66;6338642;22;20085;-82
2022/10/17 06:16:45;;;;;;;17.92;4.97;;;;;;;17.60;72.95;101556.47;6312335;22;20029;-83
2022/10/17 06:19:11;;;;;;;15.45;4.97;;;;;;;17.61;72.57;101557.31;6337960;22;20035;-83
2022/10/17 06:21:37;;;;;;;11.43;4.22;;;;;;;17.60;72.45;101563.41;6313337;22;20060;-82
2022/10/17 06:24:03;;;;;;;11.50;4.07;;;;;;;17.59;72.37;101575.53;6311971;22;20014;-82
2022/10/17 06:26:28;;;;;;;12.77;3.85;;;;;;;17.60;72.47;101574.69;6311921;22;20036;-82
2022/10/17 06:28:54;;;;;;;9.52;4.13;;;;;;;17.59;72.54;101600.69;6311758;22;20014;-83
2022/10/17 06:31:20;;;;;;;9.40;4.05;;;;;;;17.59;72.39;101618.91;6312348;22;20014;-82
2022/10/17 06:33:45;;;;;;;9.57;3.70;;;;;;;17.59;72.85;101622.38;6337958;22;20010;-82
2022/10/17 06:36:12;;;;;;;11.25;4.18;;;;;;;17.60;72.37;101626.72;6337733;22;20003;-82
2022/10/17 06:38:38;;;;;;;9.30;3.88;;;;;;;17.59;72.67;101632.78;6337684;22;20082;-82
2022/10/17 06:41:13;;;;;;;9.10;3.95;;;;;;;17.59;72.51;101618.91;6337520;22;20015;-82
2022/10/17 06:43:42;;;;;;;10.00;3.63;;;;;;;17.61;72.05;101611.97;6363975;22;20037;-82
2022/10/17 06:46:08;;;;;;;7.35;3.90;;;;;;;17.60;72.44;101612.84;6337749;22;20011;-82
2022/10/17 06:48:33;;;;;;;11.27;3.72;;;;;;;17.60;72.21;101625.88;6311858;22;20055;-82
2022/10/17 06:51:03;;;;;;;7.07;3.25;;;;;;;17.60;72.40;101639.75;6311884;22;20026;-82
2022/10/17 06:53:30;;;;;;;7.40;3.90;;;;;;;17.60;72.42;101628.47;6337773;22;20321;-82
2022/10/17 06:56:00;;;;;;;8.07;3.40;;;;;;;17.59;72.59;101634.53;6337653;22;20500;-82
2022/10/17 06:58:27;;;;;;;8.20;3.53;;;;;;;17.58;72.66;101632.78;6337484;22;20430;-83
2022/10/17 07:00:56;;;;;;;9.00;3.33;;;;;;;17.57;72.67;101625.84;6339250;22;20021;-82
2022/10/17 07:03:22;;;;;;;6.75;3.67;;;;;;;17.57;72.67;101631.94;6312786;22;20002;-81
2022/10/17 07:05:51;;;;;;;6.93;3.33;;;;;;;17.59;72.38;101627.56;6312715;22;20331;-82
2022/10/17 07:08:17;;;;;;;7.72;3.08;;;;;;;17.59;72.68;101626.72;6339180;22;20010;-82
2022/10/17 07:10:42;;;;;;;6.25;3.30;;;;;;;17.60;72.33;101633.69;6311904;22;20075;-82
2022/10/17 07:13:07;;;;;;;6.15;3.28;;;;;;;17.59;73.11;101637.13;6337607;22;20071;-82
2022/10/17 07:15:33;;;;;;;6.78;2.78;;;;;;;17.59;72.31;101642.31;6311507;22;20417;-82
2022/10/17 07:17:58;;;;;;;7.38;3.20;;;;;;;17.59;71.94;101648.41;6311551;22;20018;-82
2022/10/17 07:20:24;;;;;;;7.97;3.42;;;;;;;17.59;71.88;101658.81;6337177;22;20029;-82
2022/10/17 07:22:49;;;;;;;5.38;2.83;;;;;;;17.60;72.03;101665.75;6311414;22;20010;-83
2022/10/17 07:25:14;;;;;;;6.00;3.17;;;;;;;17.60;72.80;101664.91;6311512;22;19999;-83
2022/10/17 07:27:40;;;;;;;5.32;2.90;;;;;;;17.57;72.65;101665.78;6311445;22;20069;-82
2022/10/17 07:30:06;;;;;;;5.80;3.03;;;;;;;17.59;72.03;101690.03;6311425;22;20007;-83
2022/10/17 07:32:31;;;;;;;5.30;3.17;;;;;;;17.58;72.11;101713.47;6311552;22;20347;-82
2022/10/17 07:34:57;;;;;;;6.30;3.08;;;;;;;17.57;72.38;101728.22;6338125;22;20060;-83
2022/10/17 07:37:22;;;;;;;6.45;3.33;;;;;;;17.58;72.11;101729.97;6337744;22;20496;-85
2022/10/17 07:39:48;;;;;;;7.05;3.00;;;;;;;17.59;72.20;101741.22;6311071;22;20022;-84
2022/10/17 07:42:13;;;;;;;5.93;3.33;;;;;;;17.59;72.27;101752.50;6337585;22;20010;-81
2022/10/17 07:44:39;;;;;;;7.90;2.75;;;;;;;17.59;72.46;101755.09;6337471;22;20083;-82
2022/10/17 07:47:04;;;;;;;7.78;3.10;;;;;;;17.60;72.05;101763.81;6312926;22;20034;-81
2022/10/17 07:49:30;;;;;;;5.95;3.10;;;;;;;17.60;71.66;101774.22;6337500;22;20077;-82
2022/10/17 07:51:55;;;;;;;6.43;2.78;;;;;;;17.60;71.54;101784.63;6339380;22;20318;-83
2022/10/17 07:54:21;;;;;;;7.32;2.80;;;;;;;17.64;71.68;101783.78;6339073;22;20003;-84
2022/10/17 07:56:49;;;;;;;4.43;2.92;;;;;;;17.63;72.43;101795.03;6311451;22;20385;-81
2022/10/17 07:59:16;;;;;;;5.45;2.80;;;;;;;17.63;71.48;101793.31;6311778;22;20011;-82
2022/10/17 08:01:41;;;;;;;6.15;3.00;;;;;;;17.65;71.81;101798.53;6311484;22;20006;-81
2022/10/17 08:04:06;;;;;;;4.47;2.88;;;;;;;17.66;71.54;101808.97;6311281;22;20015;-82
2022/10/17 08:06:32;;;;;;;5.35;2.90;;;;;;;17.68;71.16;101820.25;6337295;22;20331;-82
2022/10/17 08:08:58;;;;;;;4.65;2.60;;;;;;;17.73;70.72;101828.09;6337153;22;20003;-83
2022/10/17 08:11:24;;;;;;;4.90;2.70;;;;;;;17.75;70.67;101828.97;6311560;22;20010;-81
2022/10/17 08:13:49;;;;;;;5.80;2.63;;;;;;;17.78;70.58;101835.91;6313054;22;20475;-81
2022/10/17 08:16:15;;;;;;;4.63;2.63;;;;;;;17.79;70.51;101835.03;6338959;22;20308;-82
2022/10/17 08:18:41;;;;;;;7.00;2.58;;;;;;;17.79;70.58;101846.34;6338651;22;20029;-82
2022/10/17 08:21:08;;;;;;;7.05;2.55;;;;;;;17.82;70.39;101841.19;6338993;22;20056;-83
2022/10/17 08:23:34;;;;;;;6.25;2.63;;;;;;;17.84;70.61;101846.41;6340587;22;20075;-81
2022/10/17 08:26:01;;;;;;;4.03;2.38;;;;;;;17.84;70.55;101842.06;6338828;22;20089;-82
2022/10/17 08:28:27;;;;;;;5.15;2.70;;;;;;;17.83;70.58;101849.84;6338782;22;20042;-82
2022/10/17 08:30:53;;;;;;;4.95;2.47;;;;;;;17.82;70.48;101846.38;6340707;22;20010;-82
2022/10/17 08:33:18;;;;;;;4.60;2.00;;;;;;;17.82;70.81;101854.19;6339046;22;20362;-82
2022/10/17 08:35:43;;;;;;;3.47;2.25;;;;;;;17.81;70.81;101851.53;6313614;22;20014;-82
2022/10/17 08:38:09;;;;;;;4.10;2.30;;;;;;;17.80;71.08;101844.59;6314859;22;20372;-82
2022/10/17 08:40:35;;;;;;;4.03;2.47;;;;;;;17.77;71.00;101834.16;6343194;22;20048;-85
2022/10/17 08:43:19;;;;;;;3.35;2.25;;;;;;;17.79;70.90;101832.44;6343618;22;20003;-83
2022/10/17 08:45:52;;;;;;;4.50;2.50;;;;;;;17.78;71.83;101833.31;6342400;22;20010;-84
2022/10/17 08:48:20;;;;;;;2.97;2.13;;;;;;;17.78;71.42;101820.28;6341723;22;20006;-86
2022/10/17 08:50:55;;;;;;;4.50;2.78;;;;;;;17.78;71.09;101808.13;6339484;22;20093;-82
2022/10/17 08:53:42;;;;;;;5.28;2.50;;;;;;;17.77;70.89;101802.91;6338658;22;20136;-82
2022/10/17 08:56:19;;;;;;;4.10;2.38;;;;;;;17.77;71.26;101797.72;6338937;22;20007;-86
2022/10/17 08:58:45;;;;;;;3.90;2.35;;;;;;;17.78;70.82;101792.53;6339090;22;20026;-85
2022/10/17 09:01:44;;;;;;;4.78;2.60;;;;;;;17.77;71.20;101788.19;6365710;22;20010;-86
2022/10/17 09:04:42;;;;;;;3.72;2.38;;;;;;;17.78;71.23;101797.72;6339138;22;20380;-87
2022/10/17 09:07:18;;;;;;;3.38;2.20;;;;;;;17.78;71.59;101812.47;6276088;22;20008;-87
2022/10/17 09:10:07;;;;;;;4.43;2.60;;;;;;;17.78;71.21;101815.94;6249882;22;20004;-88
2022/10/17 09:12:35;;;;;;;3.05;2.13;;;;;;;17.80;71.13;101829.84;6250832;22;20105;-82
2022/10/17 09:15:33;;;;;;;2.75;2.10;;;;;;;17.81;71.04;101834.22;6275850;22;20008;-82
2022/10/17 09:18:10;;;;;;;3.67;2.17;;;;;;;17.82;71.10;101838.56;6249765;22;20061;-83
2022/10/17 09:20:43;;;;;;;3.65;2.30;;;;;;;17.81;71.90;101841.13;6249489;22;20015;-82
2022/10/17 09:23:19;;;;;;;3.95;2.45;;;;;;;17.80;71.78;101848.06;6277155;22;20011;-85
2022/10/17 09:25:51;;;;;;;2.97;2.20;;;;;;;17.81;71.53;101848.94;6261793;22;20007;-84
2022/10/17 09:28:34;;;;;;;2.75;2.13;;;;;;;17.82;70.88;101853.34;6260662;22;20007;-85
2022/10/17 09:31:18;;;;;;;2.87;1.97;;;;;;;17.82;71.51;101842.91;6257710;22;20110;-83
2022/10/17 09:33:45;;;;;;;3.35;2.33;;;;;;;17.81;71.05;101846.34;6252624;22;20086;-83
2022/10/17 09:36:16;;;;;;;2.35;2.00;;;;;;;17.81;71.27;101835.91;6277103;22;20065;-83
2022/10/17 09:38:46;;;;;;;2.85;1.98;;;;;;;17.83;71.03;101826.41;6315009;22;20022;-84
2022/10/17 09:41:17;;;;;;;2.75;1.98;;;;;;;17.83;70.81;101840.34;6338521;22;20038;-84
2022/10/17 09:43:42;;;;;;;3.60;2.17;;;;;;;17.84;70.95;101844.66;6338655;22;20006;-84
2022/10/17 09:46:12;;;;;;;3.15;2.10;;;;;;;17.84;71.17;101854.22;6338987;22;20007;-83
2022/10/17 09:48:45;;;;;;;3.47;1.83;;;;;;;17.85;70.72;101871.56;6338532;22;20003;-83
2022/10/17 09:51:12;;;;;;;3.50;2.00;;;;;;;17.85;70.90;101895.88;6338025;22;20427;-83
2022/10/17 09:53:46;;;;;;;2.35;1.67;;;;;;;17.84;71.16;101888.94;6338265;22;20010;-83
2022/10/17 09:56:16;;;;;;;3.50;1.88;;;;;;;17.84;71.30;101898.47;6338931;22;20003;-84
2022/10/17 09:58:45;;;;;;;2.90;1.90;;;;;;;17.83;71.22;101905.44;6338903;22;20396;-84
2022/10/17 10:01:17;;;;;;;3.08;2.10;;;;;;;17.87;71.16;101903.69;6338593;22;20006;-83
2022/10/17 10:03:43;;;;;;;3.30;2.00;;;;;;;17.88;70.72;101921.06;6339964;22;20125;-84
2022/10/17 10:06:16;;;;;;;2.47;1.58;;;;;;;17.91;70.97;101925.44;6312054;22;20038;-84
2022/10/17 10:08:59;;;;;;;3.63;2.10;;;;;;;17.90;71.22;101927.16;6338055;22;20003;-85
2022/10/17 10:11:43;;;;;;;2.90;2.00;;;;;;;17.91;70.98;101920.22;6339702;22;19998;-84
2022/10/17 10:14:23;;;;;;;2.40;1.75;;;;;;;17.93;70.79;101921.09;6339660;22;20253;-83
2022/10/17 10:16:50;;;;;;;2.63;1.90;;;;;;;17.94;71.49;101917.63;6339578;22;20003;-82
2022/10/17 10:19:36;;;;;;;2.70;1.80;;;;;;;17.96;70.89;101921.97;6337985;22;19995;-86
2022/10/17 10:22:02;;;;;;;9.05;1.88;;;;;;;17.99;73.45;101923.75;6339724;22;20006;-80
2022/10/17 10:24:28;;;;;;;3.20;1.70;;;;;;;18.00;71.70;101934.16;6338164;22;20018;-80
2022/10/17 10:26:57;;;;;;;3.53;2.03;;;;;;;18.04;71.76;101953.28;6338690;22;20287;-84
2022/10/17 10:29:58;;;;;;;3.22;1.73;;;;;;;18.00;71.34;101946.31;6338450;22;19995;-85
2022/10/17 10:32:32;;;;;;;3.75;2.08;;;;;;;17.97;71.30;101961.94;6286958;22;20007;-85
2022/10/17 10:35:17;;;;;;;2.63;2.00;;;;;;;17.96;71.59;101973.19;6337924;22;20029;-85
2022/10/17 10:37:46;;;;;;;2.50;1.83;;;;;;;17.94;71.34;101969.69;6341580;22;19999;-81
2022/10/17 10:40:18;;;;;;;2.63;1.95;;;;;;;17.92;71.66;101969.72;6364228;22;20407;-84
2022/10/17 10:42:53;;;;;;;6.60;2.10;;;;;;;17.91;71.81;101969.69;6338207;22;20009;-86
2022/10/17 10:45:40;;;;;;;2.88;2.03;;;;;;;17.89;72.19;101977.50;6337789;22;20236;-85
2022/10/17 10:48:22;;;;;;;3.65;2.13;;;;;;;17.87;72.51;101977.47;6338094;22;20007;-85
2022/10/17 10:50:54;;;;;;;3.08;2.00;;;;;;;17.89;72.09;101980.09;6337656;22;20064;-83
2022/10/17 10:53:37;;;;;;;2.78;2.05;;;;;;;17.87;72.66;101987.88;6337777;22;20109;-83
2022/10/17 10:56:42;;;;;;;3.03;1.90;;;;;;;17.86;72.47;101988.75;6338346;22;20006;-85
2022/10/17 10:59:07;;;;;;;2.38;1.85;;;;;;;17.86;72.71;101987.91;6339454;22;20007;-85
2022/10/17 11:02:10;;;;;;;3.58;1.90;;;;;;;17.84;72.64;101984.41;6337807;22;20520;-85
2022/10/17 11:04:43;;;;;;;2.50;1.70;;;;;;;17.85;73.04;101988.75;6338319;22;20060;-85
2022/10/17 11:07:14;;;;;;;3.03;1.95;;;;;;;17.83;73.25;101991.34;6339349;22;20003;-86
2022/10/17 11:09:58;;;;;;;2.70;1.70;;;;;;;17.84;73.13;102003.50;6339425;22;20025;-85
2022/10/17 11:12:27;;;;;;;2.97;1.90;;;;;;;17.85;73.32;102001.75;6338048;22;20003;-85
2022/10/17 11:15:16;;;;;;;2.08;1.70;;;;;;;17.84;72.87;102011.31;6341055;22;20010;-85
2022/10/17 11:17:50;;;;;;;2.10;1.75;;;;;;;17.85;72.86;102012.19;6337611;22;20010;-85
2022/10/17 11:20:27;;;;;;;2.88;2.17;;;;;;;17.85;72.96;102018.25;6339121;22;20017;-83
2022/10/17 11:23:09;;;;;;;2.70;1.83;;;;;;;17.84;72.62;102008.69;6337825;22;20007;-87
2022/10/17 11:25:37;;;;;;;3.00;1.80;;;;;;;17.86;73.17;102011.34;6339317;22;20003;-86
2022/10/17 11:28:12;;;;;;;2.33;1.80;;;;;;;17.83;73.31;102009.56;6339391;22;19999;-86
2022/10/17 11:30:45;;;;;;;2.72;1.70;;;;;;;17.86;72.84;102027.81;6337744;22;20007;-86
2022/10/17 11:33:18;;;;;;;2.00;1.67;;;;;;;17.88;72.28;102035.66;6339433;22;20005;-86
2022/10/17 11:35:48;;;;;;;4.22;2.08;;;;;;;17.86;73.40;102048.66;6337647;22;20007;-87
2022/10/17 11:38:42;;;;;;;2.63;1.85;;;;;;;17.89;72.68;102042.59;6337768;22;20445;-85
2022/10/17 11:41:14;;;;;;;4.38;1.70;;;;;;;17.91;72.66;102046.09;6337574;22;20462;-83
2022/10/17 11:43:58;;;;;;;3.75;1.83;;;;;;;17.93;72.79;102051.31;6339039;22;20450;-83
2022/10/17 11:46:26;;;;;;;2.60;1.75;;;;;;;17.94;73.12;102056.50;6364260;22;20386;-83
2022/10/17 11:49:18;;;;;;;3.95;2.00;;;;;;;17.96;73.38;102053.94;6339879;22;19995;-87
2022/10/17 11:52:15;;;;;;;2.05;1.60;;;;;;;17.97;73.35;102066.97;6341252;22;20003;-86
2022/10/17 11:54:47;;;;;;;2.30;1.70;;;;;;;18.00;73.40;102073.94;6334651;22;20007;-85
2022/10/17 11:57:41;;;;;;;2.53;1.70;;;;;;;17.99;73.59;102080.88;6339890;22;19999;-86
2022/10/17 12:00:07;;;;;;;2.30;1.75;;;;;;;17.99;73.43;102080.03;6339142;22;20014;-86
2022/10/17 12:02:38;;;;;;;1.70;1.33;;;;;;;18.00;73.36;102081.75;6339322;22;20010;-85
2022/10/17 12:05:31;;;;;;;2.10;1.60;;;;;;;17.98;73.31;102086.06;6341441;22;20415;-85
2022/10/17 12:08:08;;;;;;;3.35;1.85;;;;;;;17.97;73.58;102103.44;6340183;22;20041;-86
2022/10/17 12:10:55;;;;;;;1.95;1.40;;;;;;;17.94;73.65;102099.91;6339304;22;20003;-86
2022/10/17 12:13:26;;;;;;;1.45;1.35;;;;;;;17.94;73.79;102094.72;6340964;22;20003;-85
2022/10/17 12:15:53;;;;;;;2.58;1.60;;;;;;;17.93;73.95;102087.78;6339170;22;20007;-86
2022/10/17 12:18:19;;;;;;;2.90;1.60;;;;;;;17.93;73.86;102093.84;6287840;22;20481;-85
2022/10/17 12:20:56;;;;;;;2.53;1.80;;;;;;;17.94;73.77;102092.09;6312860;22;20086;-86
2022/10/17 12:23:27;;;;;;;2.22;1.67;;;;;;;17.93;73.83;102095.59;6313208;22;20018;-86
2022/10/17 12:26:08;;;;;;;2.17;1.25;;;;;;;17.94;73.60;102097.31;6339154;22;20003;-87
2022/10/17 12:28:36;;;;;;;2.28;1.50;;;;;;;17.93;74.05;102095.59;6339133;22;20410;-86
2022/10/17 12:31:24;;;;;;;1.88;1.55;;;;;;;17.93;73.77;102100.78;6339098;22;20438;-87
2022/10/17 12:33:59;;;;;;;1.92;1.45;;;;;;;17.92;73.83;102099.94;6339592;22;20044;-87